sensor_id;sensor_type;location;lat;lon;timestamp;P1;durP1;ratioP1;P2;durP2;ratioP2
2031;SDS011;27625;50.422;7.944;2024-03-22T00:00:21;19.40;;;11.27;;
2031;SDS011;27625;50.422;7.944;2024-03-22T00:02:48;22.40;;;11.43;;
2031;SDS011;27625;50.422;7.944;2024-03-22T00:05:22;20.43;;;11.33;;
2031;SDS011;27625;50.422;7.944;2024-03-22T00:07:52;21.90;;;12.47;;
2031;SDS011;27625;50.422;7.944;2024-03-22T00:10:22;21.73;;;12.70;;
2031;SDS011;27625;50.422;7.944;2024-03-22T00:12:48;20.20;;;11.43;;
2031;SDS011;27625;50.422;7.944;2024-03-22T00:15:15;19.13;;;11.43;;
2031;SDS011;27625;50.422;7.944;2024-03-22T00:17:44;18.30;;;10.80;;
2031;SDS011;27625;50.422;7.944;2024-03-22T00:20:14;16.63;;;10.13;;
2031;SDS011;27625;50.422;7.944;2024-03-22T00:22:43;20.90;;;11.17;;
2031;SDS011;27625;50.422;7.944;2024-03-22T00:25:10;17.93;;;10.40;;
2031;SDS011;27625;50.422;7.944;2024-03-22T00:27:40;18.37;;;10.57;;
2031;SDS011;27625;50.422;7.944;2024-03-22T00:30:07;20.23;;;11.40;;
2031;SDS011;27625;50.422;7.944;2024-03-22T00:32:33;20.13;;;10.50;;
2031;SDS011;27625;50.422;7.944;2024-03-22T00:35:01;18.23;;;10.77;;
2031;SDS011;27625;50.422;7.944;2024-03-22T00:37:36;23.20;;;11.50;;
2031;SDS011;27625;50.422;7.944;2024-03-22T00:40:03;20.93;;;11.80;;
2031;SDS011;27625;50.422;7.944;2024-03-22T00:42:30;20.70;;;11.30;;
2031;SDS011;27625;50.422;7.944;2024-03-22T00:44:58;19.40;;;11.10;;
2031;SDS011;27625;50.422;7.944;2024-03-22T00:47:26;22.63;;;13.00;;
2031;SDS011;27625;50.422;7.944;2024-03-22T00:49:52;20.37;;;12.30;;
2031;SDS011;27625;50.422;7.944;2024-03-22T00:52:19;20.30;;;12.37;;
2031;SDS011;27625;50.422;7.944;2024-03-22T00:54:49;21.90;;;12.73;;
2031;SDS011;27625;50.422;7.944;2024-03-22T00:57:19;20.97;;;12.27;;
2031;SDS011;27625;50.422;7.944;2024-03-22T00:59:46;20.60;;;12.33;;
2031;SDS011;27625;50.422;7.944;2024-03-22T01:02:15;22.60;;;11.70;;
2031;SDS011;27625;50.422;7.944;2024-03-22T01:04:43;23.03;;;13.10;;
2031;SDS011;27625;50.422;7.944;2024-03-22T01:07:09;21.40;;;11.20;;
2031;SDS011;27625;50.422;7.944;2024-03-22T01:09:35;27.33;;;13.67;;
2031;SDS011;27625;50.422;7.944;2024-03-22T01:12:01;19.77;;;11.87;;
2031;SDS011;27625;50.422;7.944;2024-03-22T01:14:29;23.17;;;13.47;;
2031;SDS011;27625;50.422;7.944;2024-03-22T01:16:54;22.40;;;13.00;;
2031;SDS011;27625;50.422;7.944;2024-03-22T01:19:22;22.80;;;12.47;;
2031;SDS011;27625;50.422;7.944;2024-03-22T01:21:51;22.83;;;11.80;;
2031;SDS011;27625;50.422;7.944;2024-03-22T01:24:18;24.53;;;13.50;;
2031;SDS011;27625;50.422;7.944;2024-03-22T01:26:43;22.57;;;12.63;;
2031;SDS011;27625;50.422;7.944;2024-03-22T01:29:13;22.57;;;13.50;;
2031;SDS011;27625;50.422;7.944;2024-03-22T01:31:39;24.63;;;14.60;;
2031;SDS011;27625;50.422;7.944;2024-03-22T01:34:10;23.10;;;14.30;;
2031;SDS011;27625;50.422;7.944;2024-03-22T01:36:38;26.50;;;13.47;;
2031;SDS011;27625;50.422;7.944;2024-03-22T01:39:04;28.93;;;16.77;;
2031;SDS011;27625;50.422;7.944;2024-03-22T01:41:31;26.70;;;16.10;;
2031;SDS011;27625;50.422;7.944;2024-03-22T01:43:58;24.97;;;14.70;;
2031;SDS011;27625;50.422;7.944;2024-03-22T01:46:25;26.33;;;15.37;;
2031;SDS011;27625;50.422;7.944;2024-03-22T01:49:00;25.10;;;14.50;;
2031;SDS011;27625;50.422;7.944;2024-03-22T01:51:38;28.00;;;15.37;;
2031;SDS011;27625;50.422;7.944;2024-03-22T01:54:04;28.20;;;15.50;;
2031;SDS011;27625;50.422;7.944;2024-03-22T01:56:33;28.53;;;15.37;;
2031;SDS011;27625;50.422;7.944;2024-03-22T01:59:00;27.27;;;15.23;;
2031;SDS011;27625;50.422;7.944;2024-03-22T02:01:33;26.30;;;15.30;;
2031;SDS011;27625;50.422;7.944;2024-03-22T02:04:01;28.80;;;16.17;;
2031;SDS011;27625;50.422;7.944;2024-03-22T02:06:28;25.57;;;16.27;;
2031;SDS011;27625;50.422;7.944;2024-03-22T02:08:57;25.37;;;15.57;;
2031;SDS011;27625;50.422;7.944;2024-03-22T02:11:24;32.40;;;17.70;;
2031;SDS011;27625;50.422;7.944;2024-03-22T02:13:52;27.07;;;15.70;;
2031;SDS011;27625;50.422;7.944;2024-03-22T02:16:18;29.10;;;16.90;;
2031;SDS011;27625;50.422;7.944;2024-03-22T02:18:52;30.73;;;16.30;;
2031;SDS011;27625;50.422;7.944;2024-03-22T02:21:20;30.27;;;15.37;;
2031;SDS011;27625;50.422;7.944;2024-03-22T02:23:47;26.13;;;15.83;;
2031;SDS011;27625;50.422;7.944;2024-03-22T02:26:16;28.77;;;15.90;;
2031;SDS011;27625;50.422;7.944;2024-03-22T02:28:41;31.93;;;15.73;;
2031;SDS011;27625;50.422;7.944;2024-03-22T02:31:08;30.20;;;15.67;;
2031;SDS011;27625;50.422;7.944;2024-03-22T02:33:34;28.40;;;15.57;;
2031;SDS011;27625;50.422;7.944;2024-03-22T02:36:00;34.17;;;17.27;;
2031;SDS011;27625;50.422;7.944;2024-03-22T02:38:26;31.60;;;16.30;;
2031;SDS011;27625;50.422;7.944;2024-03-22T02:40:54;28.50;;;15.90;;
2031;SDS011;27625;50.422;7.944;2024-03-22T02:43:20;28.60;;;15.93;;
2031;SDS011;27625;50.422;7.944;2024-03-22T02:45:47;32.57;;;16.20;;
2031;SDS011;27625;50.422;7.944;2024-03-22T02:48:15;27.07;;;15.50;;
2031;SDS011;27625;50.422;7.944;2024-03-22T02:50:46;33.53;;;17.57;;
2031;SDS011;27625;50.422;7.944;2024-03-22T02:53:23;27.13;;;15.63;;
2031;SDS011;27625;50.422;7.944;2024-03-22T02:55:50;31.60;;;16.33;;
2031;SDS011;27625;50.422;7.944;2024-03-22T02:58:18;26.20;;;15.90;;
2031;SDS011;27625;50.422;7.944;2024-03-22T03:00:48;28.40;;;16.07;;
2031;SDS011;27625;50.422;7.944;2024-03-22T03:03:14;34.80;;;17.43;;
2031;SDS011;27625;50.422;7.944;2024-03-22T03:05:41;27.70;;;15.87;;
2031;SDS011;27625;50.422;7.944;2024-03-22T03:08:08;33.00;;;17.03;;
2031;SDS011;27625;50.422;7.944;2024-03-22T03:10:37;29.93;;;17.03;;
2031;SDS011;27625;50.422;7.944;2024-03-22T03:13:04;30.13;;;17.87;;
2031;SDS011;27625;50.422;7.944;2024-03-22T03:15:32;29.27;;;17.30;;
2031;SDS011;27625;50.422;7.944;2024-03-22T03:18:00;29.23;;;15.97;;
2031;SDS011;27625;50.422;7.944;2024-03-22T03:20:38;27.77;;;15.93;;
2031;SDS011;27625;50.422;7.944;2024-03-22T03:23:06;30.77;;;17.30;;
2031;SDS011;27625;50.422;7.944;2024-03-22T03:25:39;30.60;;;17.37;;
2031;SDS011;27625;50.422;7.944;2024-03-22T03:28:05;24.37;;;13.20;;
2031;SDS011;27625;50.422;7.944;2024-03-22T03:30:43;31.03;;;16.50;;
2031;SDS011;27625;50.422;7.944;2024-03-22T03:33:08;28.90;;;14.60;;
2031;SDS011;27625;50.422;7.944;2024-03-22T03:35:35;31.17;;;16.20;;
2031;SDS011;27625;50.422;7.944;2024-03-22T03:38:02;28.13;;;14.90;;
2031;SDS011;27625;50.422;7.944;2024-03-22T03:40:34;28.20;;;15.90;;
2031;SDS011;27625;50.422;7.944;2024-03-22T03:43:00;26.53;;;15.77;;
2031;SDS011;27625;50.422;7.944;2024-03-22T03:45:27;29.00;;;15.20;;
2031;SDS011;27625;50.422;7.944;2024-03-22T03:47:57;30.27;;;15.27;;
2031;SDS011;27625;50.422;7.944;2024-03-22T03:50:23;27.07;;;15.17;;
2031;SDS011;27625;50.422;7.944;2024-03-22T03:52:59;23.97;;;13.03;;
2031;SDS011;27625;50.422;7.944;2024-03-22T03:55:26;27.73;;;15.70;;
2031;SDS011;27625;50.422;7.944;2024-03-22T04:00:22;27.17;;;15.23;;
2031;SDS011;27625;50.422;7.944;2024-03-22T04:02:48;28.23;;;14.73;;
2031;SDS011;27625;50.422;7.944;2024-03-22T04:05:18;32.03;;;17.07;;
2031;SDS011;27625;50.422;7.944;2024-03-22T04:07:46;28.47;;;15.23;;
2031;SDS011;27625;50.422;7.944;2024-03-22T04:10:14;31.53;;;16.60;;
2031;SDS011;27625;50.422;7.944;2024-03-22T04:12:42;31.57;;;16.83;;
2031;SDS011;27625;50.422;7.944;2024-03-22T04:17:48;36.27;;;16.57;;
2031;SDS011;27625;50.422;7.944;2024-03-22T04:20:14;32.70;;;16.87;;
2031;SDS011;27625;50.422;7.944;2024-03-22T04:22:41;28.87;;;16.80;;
2031;SDS011;27625;50.422;7.944;2024-03-22T04:25:10;41.10;;;19.00;;
2031;SDS011;27625;50.422;7.944;2024-03-22T04:27:36;29.37;;;16.37;;
2031;SDS011;27625;50.422;7.944;2024-03-22T04:30:05;29.27;;;14.60;;
2031;SDS011;27625;50.422;7.944;2024-03-22T04:32:31;30.20;;;16.17;;
2031;SDS011;27625;50.422;7.944;2024-03-22T04:34:58;32.93;;;16.90;;
2031;SDS011;27625;50.422;7.944;2024-03-22T04:37:24;32.60;;;17.70;;
2031;SDS011;27625;50.422;7.944;2024-03-22T04:39:53;36.97;;;17.27;;
2031;SDS011;27625;50.422;7.944;2024-03-22T04:42:29;31.03;;;15.80;;
2031;SDS011;27625;50.422;7.944;2024-03-22T04:47:28;30.70;;;16.77;;
2031;SDS011;27625;50.422;7.944;2024-03-22T04:50:01;32.20;;;16.50;;
2031;SDS011;27625;50.422;7.944;2024-03-22T04:52:29;30.60;;;17.90;;
2031;SDS011;27625;50.422;7.944;2024-03-22T04:55:06;29.97;;;18.03;;
2031;SDS011;27625;50.422;7.944;2024-03-22T04:57:33;35.10;;;19.47;;
2031;SDS011;27625;50.422;7.944;2024-03-22T05:00:00;32.10;;;17.90;;
2031;SDS011;27625;50.422;7.944;2024-03-22T05:02:27;33.13;;;18.00;;
2031;SDS011;27625;50.422;7.944;2024-03-22T05:04:54;33.80;;;17.83;;
2031;SDS011;27625;50.422;7.944;2024-03-22T05:07:19;34.53;;;16.17;;
2031;SDS011;27625;50.422;7.944;2024-03-22T05:09:46;36.60;;;18.33;;
2031;SDS011;27625;50.422;7.944;2024-03-22T05:12:15;32.97;;;15.80;;
2031;SDS011;27625;50.422;7.944;2024-03-22T05:14:42;36.10;;;18.73;;
2031;SDS011;27625;50.422;7.944;2024-03-22T05:17:07;27.77;;;16.90;;
2031;SDS011;27625;50.422;7.944;2024-03-22T05:19:34;34.60;;;17.60;;
2031;SDS011;27625;50.422;7.944;2024-03-22T05:22:00;41.60;;;19.77;;
2031;SDS011;27625;50.422;7.944;2024-03-22T05:26:57;34.17;;;18.77;;
2031;SDS011;27625;50.422;7.944;2024-03-22T05:29:27;36.17;;;19.17;;
2031;SDS011;27625;50.422;7.944;2024-03-22T05:31:53;31.07;;;16.63;;
2031;SDS011;27625;50.422;7.944;2024-03-22T05:34:20;32.93;;;18.20;;
2031;SDS011;27625;50.422;7.944;2024-03-22T05:36:46;35.10;;;17.83;;
2031;SDS011;27625;50.422;7.944;2024-03-22T05:39:12;36.73;;;20.03;;
2031;SDS011;27625;50.422;7.944;2024-03-22T05:41:46;33.70;;;17.93;;
2031;SDS011;27625;50.422;7.944;2024-03-22T05:44:13;37.47;;;19.03;;
2031;SDS011;27625;50.422;7.944;2024-03-22T05:46:40;38.17;;;19.67;;
2031;SDS011;27625;50.422;7.944;2024-03-22T05:49:08;37.10;;;18.43;;
2031;SDS011;27625;50.422;7.944;2024-03-22T05:51:36;33.60;;;18.40;;
2031;SDS011;27625;50.422;7.944;2024-03-22T05:54:03;33.63;;;18.70;;
2031;SDS011;27625;50.422;7.944;2024-03-22T05:56:35;33.13;;;18.27;;
2031;SDS011;27625;50.422;7.944;2024-03-22T05:59:04;42.40;;;19.70;;
2031;SDS011;27625;50.422;7.944;2024-03-22T06:01:29;41.37;;;19.70;;
2031;SDS011;27625;50.422;7.944;2024-03-22T06:03:57;33.30;;;19.37;;
2031;SDS011;27625;50.422;7.944;2024-03-22T06:06:23;35.77;;;19.20;;
2031;SDS011;27625;50.422;7.944;2024-03-22T06:08:53;47.17;;;21.23;;
2031;SDS011;27625;50.422;7.944;2024-03-22T06:11:19;34.23;;;17.73;;
2031;SDS011;27625;50.422;7.944;2024-03-22T06:13:49;33.47;;;18.17;;
2031;SDS011;27625;50.422;7.944;2024-03-22T06:16:14;41.13;;;18.97;;
2031;SDS011;27625;50.422;7.944;2024-03-22T06:18:41;36.43;;;18.03;;
2031;SDS011;27625;50.422;7.944;2024-03-22T06:21:09;34.97;;;17.90;;
2031;SDS011;27625;50.422;7.944;2024-03-22T06:23:36;40.93;;;18.10;;
2031;SDS011;27625;50.422;7.944;2024-03-22T06:26:02;34.53;;;17.07;;
2031;SDS011;27625;50.422;7.944;2024-03-22T06:28:34;37.07;;;18.23;;
2031;SDS011;27625;50.422;7.944;2024-03-22T06:31:00;33.57;;;17.63;;
2031;SDS011;27625;50.422;7.944;2024-03-22T06:33:28;34.50;;;18.03;;
2031;SDS011;27625;50.422;7.944;2024-03-22T06:35:58;35.53;;;18.10;;
2031;SDS011;27625;50.422;7.944;2024-03-22T06:38:27;38.77;;;17.30;;
2031;SDS011;27625;50.422;7.944;2024-03-22T06:40:54;33.63;;;18.97;;
2031;SDS011;27625;50.422;7.944;2024-03-22T06:43:19;32.27;;;16.50;;
2031;SDS011;27625;50.422;7.944;2024-03-22T06:45:47;30.47;;;17.70;;
2031;SDS011;27625;50.422;7.944;2024-03-22T06:48:16;29.13;;;15.20;;
2031;SDS011;27625;50.422;7.944;2024-03-22T06:50:46;34.57;;;15.80;;
2031;SDS011;27625;50.422;7.944;2024-03-22T06:53:14;32.97;;;17.00;;
2031;SDS011;27625;50.422;7.944;2024-03-22T06:58:13;37.63;;;19.10;;
2031;SDS011;27625;50.422;7.944;2024-03-22T07:00:45;35.27;;;18.20;;
2031;SDS011;27625;50.422;7.944;2024-03-22T07:03:13;32.93;;;17.17;;
2031;SDS011;27625;50.422;7.944;2024-03-22T07:05:39;33.07;;;18.40;;
2031;SDS011;27625;50.422;7.944;2024-03-22T07:08:05;34.97;;;17.47;;
2031;SDS011;27625;50.422;7.944;2024-03-22T07:10:32;30.43;;;15.60;;
2031;SDS011;27625;50.422;7.944;2024-03-22T07:12:59;14.93;;;9.87;;
2031;SDS011;27625;50.422;7.944;2024-03-22T07:15:26;12.70;;;7.33;;
2031;SDS011;27625;50.422;7.944;2024-03-22T07:17:53;9.63;;;6.00;;
2031;SDS011;27625;50.422;7.944;2024-03-22T07:20:19;15.87;;;9.27;;
2031;SDS011;27625;50.422;7.944;2024-03-22T07:22:45;31.60;;;15.30;;
2031;SDS011;27625;50.422;7.944;2024-03-22T07:25:13;26.70;;;14.90;;
2031;SDS011;27625;50.422;7.944;2024-03-22T07:27:39;27.80;;;17.10;;
2031;SDS011;27625;50.422;7.944;2024-03-22T07:30:07;30.50;;;17.03;;
2031;SDS011;27625;50.422;7.944;2024-03-22T07:32:33;31.57;;;16.20;;
2031;SDS011;27625;50.422;7.944;2024-03-22T07:35:01;32.90;;;16.50;;
2031;SDS011;27625;50.422;7.944;2024-03-22T07:37:26;32.30;;;16.63;;
2031;SDS011;27625;50.422;7.944;2024-03-22T07:39:56;30.07;;;16.23;;
2031;SDS011;27625;50.422;7.944;2024-03-22T07:42:26;27.67;;;14.77;;
2031;SDS011;27625;50.422;7.944;2024-03-22T07:44:52;32.30;;;15.60;;
2031;SDS011;27625;50.422;7.944;2024-03-22T07:47:20;33.07;;;16.53;;
2031;SDS011;27625;50.422;7.944;2024-03-22T07:49:50;29.70;;;15.43;;
2031;SDS011;27625;50.422;7.944;2024-03-22T07:52:17;27.57;;;16.20;;
2031;SDS011;27625;50.422;7.944;2024-03-22T07:54:46;33.80;;;16.40;;
2031;SDS011;27625;50.422;7.944;2024-03-22T07:57:14;19.20;;;11.07;;
2031;SDS011;27625;50.422;7.944;2024-03-22T07:59:40;12.80;;;7.17;;
2031;SDS011;27625;50.422;7.944;2024-03-22T08:02:10;9.17;;;5.50;;
2031;SDS011;27625;50.422;7.944;2024-03-22T08:04:45;7.60;;;4.73;;
2031;SDS011;27625;50.422;7.944;2024-03-22T08:07:11;8.00;;;4.80;;
2031;SDS011;27625;50.422;7.944;2024-03-22T08:12:08;8.90;;;4.90;;
2031;SDS011;27625;50.422;7.944;2024-03-22T08:14:35;9.30;;;5.27;;
2031;SDS011;27625;50.422;7.944;2024-03-22T08:17:01;7.33;;;4.77;;
2031;SDS011;27625;50.422;7.944;2024-03-22T08:19:28;9.63;;;4.67;;
2031;SDS011;27625;50.422;7.944;2024-03-22T08:21:56;8.77;;;4.93;;
2031;SDS011;27625;50.422;7.944;2024-03-22T08:24:24;6.97;;;4.67;;
2031;SDS011;27625;50.422;7.944;2024-03-22T08:26:50;5.87;;;4.47;;
2031;SDS011;27625;50.422;7.944;2024-03-22T08:29:16;8.40;;;4.60;;
2031;SDS011;27625;50.422;7.944;2024-03-22T08:31:43;6.50;;;4.13;;
2031;SDS011;27625;50.422;7.944;2024-03-22T08:34:11;8.83;;;3.43;;
2031;SDS011;27625;50.422;7.944;2024-03-22T08:36:37;5.40;;;3.50;;
2031;SDS011;27625;50.422;7.944;2024-03-22T08:39:07;5.30;;;3.27;;
2031;SDS011;27625;50.422;7.944;2024-03-22T08:41:35;6.20;;;3.57;;
2031;SDS011;27625;50.422;7.944;2024-03-22T08:44:02;7.47;;;3.33;;
2031;SDS011;27625;50.422;7.944;2024-03-22T08:46:27;5.33;;;3.70;;
2031;SDS011;27625;50.422;7.944;2024-03-22T08:48:54;8.17;;;4.43;;
2031;SDS011;27625;50.422;7.944;2024-03-22T08:51:20;7.70;;;4.77;;
2031;SDS011;27625;50.422;7.944;2024-03-22T08:53:47;7.07;;;4.40;;
2031;SDS011;27625;50.422;7.944;2024-03-22T08:56:16;7.03;;;3.97;;
2031;SDS011;27625;50.422;7.944;2024-03-22T08:58:43;5.80;;;3.73;;
2031;SDS011;27625;50.422;7.944;2024-03-22T09:01:10;6.67;;;4.17;;
2031;SDS011;27625;50.422;7.944;2024-03-22T09:03:37;8.73;;;4.50;;
2031;SDS011;27625;50.422;7.944;2024-03-22T09:06:04;7.20;;;5.07;;
2031;SDS011;27625;50.422;7.944;2024-03-22T09:08:31;7.70;;;4.50;;
2031;SDS011;27625;50.422;7.944;2024-03-22T09:10:58;7.63;;;4.17;;
2031;SDS011;27625;50.422;7.944;2024-03-22T09:13:33;9.33;;;5.27;;
2031;SDS011;27625;50.422;7.944;2024-03-22T09:16:00;7.70;;;4.80;;
2031;SDS011;27625;50.422;7.944;2024-03-22T09:18:27;6.70;;;4.87;;
2031;SDS011;27625;50.422;7.944;2024-03-22T09:20:55;8.43;;;5.67;;
2031;SDS011;27625;50.422;7.944;2024-03-22T09:23:23;8.07;;;5.10;;
2031;SDS011;27625;50.422;7.944;2024-03-22T09:25:55;7.70;;;4.93;;
2031;SDS011;27625;50.422;7.944;2024-03-22T09:28:22;6.93;;;5.87;;
2031;SDS011;27625;50.422;7.944;2024-03-22T09:30:52;8.83;;;5.53;;
2031;SDS011;27625;50.422;7.944;2024-03-22T09:33:19;8.30;;;5.57;;
2031;SDS011;27625;50.422;7.944;2024-03-22T09:35:49;11.63;;;5.77;;
2031;SDS011;27625;50.422;7.944;2024-03-22T09:38:21;7.90;;;5.23;;
2031;SDS011;27625;50.422;7.944;2024-03-22T09:40:47;9.73;;;6.27;;
2031;SDS011;27625;50.422;7.944;2024-03-22T09:43:15;9.50;;;5.97;;
2031;SDS011;27625;50.422;7.944;2024-03-22T09:45:48;8.77;;;6.17;;
2031;SDS011;27625;50.422;7.944;2024-03-22T09:48:18;11.03;;;6.70;;
2031;SDS011;27625;50.422;7.944;2024-03-22T09:50:44;12.83;;;7.10;;
2031;SDS011;27625;50.422;7.944;2024-03-22T09:53:13;12.80;;;7.40;;
2031;SDS011;27625;50.422;7.944;2024-03-22T09:55:38;9.87;;;5.80;;
2031;SDS011;27625;50.422;7.944;2024-03-22T09:58:08;8.90;;;6.30;;
2031;SDS011;27625;50.422;7.944;2024-03-22T10:00:34;9.57;;;6.77;;
2031;SDS011;27625;50.422;7.944;2024-03-22T10:03:01;10.37;;;7.13;;
2031;SDS011;27625;50.422;7.944;2024-03-22T10:05:29;13.97;;;8.00;;
2031;SDS011;27625;50.422;7.944;2024-03-22T10:08:01;13.30;;;7.80;;
2031;SDS011;27625;50.422;7.944;2024-03-22T10:10:28;10.37;;;7.20;;
2031;SDS011;27625;50.422;7.944;2024-03-22T10:13:00;11.87;;;8.03;;
2031;SDS011;27625;50.422;7.944;2024-03-22T10:15:26;11.43;;;7.20;;
2031;SDS011;27625;50.422;7.944;2024-03-22T10:17:56;9.80;;;6.97;;
2031;SDS011;27625;50.422;7.944;2024-03-22T10:20:23;10.93;;;7.27;;
2031;SDS011;27625;50.422;7.944;2024-03-22T10:22:56;10.23;;;6.97;;
2031;SDS011;27625;50.422;7.944;2024-03-22T10:25:23;12.53;;;8.33;;
2031;SDS011;27625;50.422;7.944;2024-03-22T10:27:50;10.80;;;7.10;;
2031;SDS011;27625;50.422;7.944;2024-03-22T10:30:16;9.70;;;6.90;;
2031;SDS011;27625;50.422;7.944;2024-03-22T10:32:43;11.80;;;6.90;;
2031;SDS011;27625;50.422;7.944;2024-03-22T10:35:11;10.07;;;7.17;;
2031;SDS011;27625;50.422;7.944;2024-03-22T10:37:40;11.10;;;6.87;;
2031;SDS011;27625;50.422;7.944;2024-03-22T10:40:08;12.73;;;7.00;;
2031;SDS011;27625;50.422;7.944;2024-03-22T10:42:37;10.13;;;7.33;;
2031;SDS011;27625;50.422;7.944;2024-03-22T10:45:03;13.27;;;7.60;;
2031;SDS011;27625;50.422;7.944;2024-03-22T10:47:31;12.50;;;7.53;;
2031;SDS011;27625;50.422;7.944;2024-03-22T10:49:59;11.00;;;7.10;;
2031;SDS011;27625;50.422;7.944;2024-03-22T10:52:30;12.00;;;7.53;;
2031;SDS011;27625;50.422;7.944;2024-03-22T10:54:58;16.03;;;7.30;;
2031;SDS011;27625;50.422;7.944;2024-03-22T10:57:27;11.63;;;6.77;;
2031;SDS011;27625;50.422;7.944;2024-03-22T10:59:54;13.17;;;8.30;;
2031;SDS011;27625;50.422;7.944;2024-03-22T11:02:23;13.80;;;7.27;;
2031;SDS011;27625;50.422;7.944;2024-03-22T11:04:53;12.23;;;7.87;;
2031;SDS011;27625;50.422;7.944;2024-03-22T11:07:20;11.50;;;7.53;;
2031;SDS011;27625;50.422;7.944;2024-03-22T11:09:51;10.67;;;6.93;;
2031;SDS011;27625;50.422;7.944;2024-03-22T11:12:18;11.97;;;7.37;;
2031;SDS011;27625;50.422;7.944;2024-03-22T11:14:48;11.63;;;8.57;;
2031;SDS011;27625;50.422;7.944;2024-03-22T11:17:16;10.67;;;6.93;;
2031;SDS011;27625;50.422;7.944;2024-03-22T11:19:42;11.53;;;7.63;;
2031;SDS011;27625;50.422;7.944;2024-03-22T11:22:10;10.53;;;6.43;;
2031;SDS011;27625;50.422;7.944;2024-03-22T11:24:37;11.83;;;7.50;;
2031;SDS011;27625;50.422;7.944;2024-03-22T11:27:04;8.57;;;6.23;;
2031;SDS011;27625;50.422;7.944;2024-03-22T11:29:30;9.40;;;6.40;;
2031;SDS011;27625;50.422;7.944;2024-03-22T11:31:58;15.50;;;8.03;;
2031;SDS011;27625;50.422;7.944;2024-03-22T11:34:24;15.60;;;6.87;;
2031;SDS011;27625;50.422;7.944;2024-03-22T11:36:51;10.67;;;7.23;;
2031;SDS011;27625;50.422;7.944;2024-03-22T11:39:18;10.90;;;6.83;;
2031;SDS011;27625;50.422;7.944;2024-03-22T11:41:45;10.77;;;6.80;;
2031;SDS011;27625;50.422;7.944;2024-03-22T11:44:15;13.53;;;7.67;;
2031;SDS011;27625;50.422;7.944;2024-03-22T11:46:44;10.07;;;6.50;;
2031;SDS011;27625;50.422;7.944;2024-03-22T11:49:13;12.10;;;7.47;;
2031;SDS011;27625;50.422;7.944;2024-03-22T11:51:39;12.23;;;8.07;;
2031;SDS011;27625;50.422;7.944;2024-03-22T11:54:05;13.07;;;7.63;;
2031;SDS011;27625;50.422;7.944;2024-03-22T11:56:35;11.17;;;7.30;;
2031;SDS011;27625;50.422;7.944;2024-03-22T11:59:01;12.60;;;7.40;;
2031;SDS011;27625;50.422;7.944;2024-03-22T12:01:29;11.90;;;8.20;;
2031;SDS011;27625;50.422;7.944;2024-03-22T12:04:01;11.27;;;7.80;;
2031;SDS011;27625;50.422;7.944;2024-03-22T12:06:43;12.83;;;8.27;;
2031;SDS011;27625;50.422;7.944;2024-03-22T12:09:11;11.20;;;7.60;;
2031;SDS011;27625;50.422;7.944;2024-03-22T12:14:08;12.90;;;8.30;;
2031;SDS011;27625;50.422;7.944;2024-03-22T12:16:35;13.20;;;8.40;;
2031;SDS011;27625;50.422;7.944;2024-03-22T12:19:02;11.47;;;7.53;;
2031;SDS011;27625;50.422;7.944;2024-03-22T12:21:29;12.00;;;7.80;;
2031;SDS011;27625;50.422;7.944;2024-03-22T12:23:56;14.70;;;8.43;;
2031;SDS011;27625;50.422;7.944;2024-03-22T12:26:23;10.03;;;7.13;;
2031;SDS011;27625;50.422;7.944;2024-03-22T12:28:49;15.60;;;8.13;;
2031;SDS011;27625;50.422;7.944;2024-03-22T12:31:18;11.20;;;7.60;;
2031;SDS011;27625;50.422;7.944;2024-03-22T12:33:45;11.90;;;7.83;;
2031;SDS011;27625;50.422;7.944;2024-03-22T12:36:13;13.60;;;7.70;;
2031;SDS011;27625;50.422;7.944;2024-03-22T12:38:41;14.10;;;8.40;;
2031;SDS011;27625;50.422;7.944;2024-03-22T12:41:16;13.27;;;8.63;;
2031;SDS011;27625;50.422;7.944;2024-03-22T12:43:43;17.17;;;8.57;;
2031;SDS011;27625;50.422;7.944;2024-03-22T12:46:09;14.67;;;8.90;;
2031;SDS011;27625;50.422;7.944;2024-03-22T12:48:37;13.70;;;8.27;;
2031;SDS011;27625;50.422;7.944;2024-03-22T12:51:04;13.60;;;9.63;;
2031;SDS011;27625;50.422;7.944;2024-03-22T12:53:32;13.50;;;8.03;;
2031;SDS011;27625;50.422;7.944;2024-03-22T12:56:01;11.60;;;7.60;;
2031;SDS011;27625;50.422;7.944;2024-03-22T12:58:31;12.47;;;8.70;;
2031;SDS011;27625;50.422;7.944;2024-03-22T13:00:59;16.10;;;9.07;;
2031;SDS011;27625;50.422;7.944;2024-03-22T13:03:26;13.13;;;7.10;;
2031;SDS011;27625;50.422;7.944;2024-03-22T13:05:53;13.90;;;8.77;;
2031;SDS011;27625;50.422;7.944;2024-03-22T13:08:19;14.67;;;9.03;;
2031;SDS011;27625;50.422;7.944;2024-03-22T13:10:48;13.50;;;8.40;;
2031;SDS011;27625;50.422;7.944;2024-03-22T13:13:14;11.27;;;8.77;;
2031;SDS011;27625;50.422;7.944;2024-03-22T13:15:44;12.60;;;8.77;;
2031;SDS011;27625;50.422;7.944;2024-03-22T13:18:10;12.93;;;8.90;;
2031;SDS011;27625;50.422;7.944;2024-03-22T13:20:37;12.17;;;8.37;;
2031;SDS011;27625;50.422;7.944;2024-03-22T13:23:03;14.63;;;8.50;;
2031;SDS011;27625;50.422;7.944;2024-03-22T13:25:38;11.70;;;7.97;;
2031;SDS011;27625;50.422;7.944;2024-03-22T13:28:03;12.13;;;8.10;;
2031;SDS011;27625;50.422;7.944;2024-03-22T13:30:31;7.37;;;5.13;;
2031;SDS011;27625;50.422;7.944;2024-03-22T13:32:59;12.30;;;7.10;;
2031;SDS011;27625;50.422;7.944;2024-03-22T13:35:26;11.70;;;7.13;;
2031;SDS011;27625;50.422;7.944;2024-03-22T13:37:52;12.37;;;6.77;;
2031;SDS011;27625;50.422;7.944;2024-03-22T13:40:25;10.37;;;6.97;;
2031;SDS011;27625;50.422;7.944;2024-03-22T13:42:58;10.77;;;7.47;;
2031;SDS011;27625;50.422;7.944;2024-03-22T13:45:25;9.50;;;6.60;;
2031;SDS011;27625;50.422;7.944;2024-03-22T13:47:52;15.63;;;6.37;;
2031;SDS011;27625;50.422;7.944;2024-03-22T13:50:36;9.33;;;6.20;;
2031;SDS011;27625;50.422;7.944;2024-03-22T13:53:02;7.57;;;5.80;;
2031;SDS011;27625;50.422;7.944;2024-03-22T13:55:29;8.57;;;5.00;;
2031;SDS011;27625;50.422;7.944;2024-03-22T13:57:55;8.30;;;5.23;;
2031;SDS011;27625;50.422;7.944;2024-03-22T14:00:23;7.40;;;4.93;;
2031;SDS011;27625;50.422;7.944;2024-03-22T14:02:51;6.40;;;4.23;;
2031;SDS011;27625;50.422;7.944;2024-03-22T14:05:20;8.33;;;5.30;;
2031;SDS011;27625;50.422;7.944;2024-03-22T14:07:48;7.40;;;4.80;;
2031;SDS011;27625;50.422;7.944;2024-03-22T14:10:15;8.07;;;4.90;;
2031;SDS011;27625;50.422;7.944;2024-03-22T14:12:42;5.63;;;4.13;;
2031;SDS011;27625;50.422;7.944;2024-03-22T14:15:10;7.53;;;4.53;;
2031;SDS011;27625;50.422;7.944;2024-03-22T14:17:36;12.20;;;5.83;;
2031;SDS011;27625;50.422;7.944;2024-03-22T14:20:03;7.33;;;4.70;;
2031;SDS011;27625;50.422;7.944;2024-03-22T14:22:41;7.83;;;4.70;;
2031;SDS011;27625;50.422;7.944;2024-03-22T14:25:09;6.00;;;4.13;;
2031;SDS011;27625;50.422;7.944;2024-03-22T14:27:35;7.30;;;4.57;;
2031;SDS011;27625;50.422;7.944;2024-03-22T14:30:03;8.10;;;4.67;;
2031;SDS011;27625;50.422;7.944;2024-03-22T14:32:31;6.10;;;4.07;;
2031;SDS011;27625;50.422;7.944;2024-03-22T14:34:58;7.10;;;3.97;;
2031;SDS011;27625;50.422;7.944;2024-03-22T14:37:23;5.40;;;4.20;;
2031;SDS011;27625;50.422;7.944;2024-03-22T14:39:52;6.40;;;4.20;;
2031;SDS011;27625;50.422;7.944;2024-03-22T14:42:20;7.90;;;3.83;;
2031;SDS011;27625;50.422;7.944;2024-03-22T14:44:49;6.30;;;4.50;;
2031;SDS011;27625;50.422;7.944;2024-03-22T14:47:14;5.10;;;3.37;;
2031;SDS011;27625;50.422;7.944;2024-03-22T14:49:41;5.70;;;3.63;;
2031;SDS011;27625;50.422;7.944;2024-03-22T14:52:08;7.00;;;3.47;;
2031;SDS011;27625;50.422;7.944;2024-03-22T14:54:44;7.37;;;3.53;;
2031;SDS011;27625;50.422;7.944;2024-03-22T14:57:11;6.03;;;3.60;;
2031;SDS011;27625;50.422;7.944;2024-03-22T14:59:40;6.03;;;3.37;;
2031;SDS011;27625;50.422;7.944;2024-03-22T15:02:07;6.47;;;3.73;;
2031;SDS011;27625;50.422;7.944;2024-03-22T15:04:35;6.77;;;3.50;;